.
WxDataArchive / Data Records for 2006-07-10
2006-07-09 July 2006 2006-07-11

Data Records for Monday, 10 July 2006

Time	Temp	Chill	HIndex	Humid	Dewpt	 Wind 	HiWind	WindDir	Rain 	Barom 
-----	----	-----	------	-----	-----	------	------	-------	-----	----- 
00:00	74.4	74.4	74.4	65	61.8	1	4	248	0.00	29.873 
00:05	74.4	74.4	74.4	65	61.8	1	3	248	0.00	29.873 
00:10	74.4	74.4	74.4	65	61.8	1	2	248	0.00	29.873 
00:15	74.2	74.2	74.2	66	62.1	1	3	248	0.00	29.864 
00:20	74.2	74.2	74.2	65	61.7	1	3	270	0.00	29.864 
00:25	74.2	74.2	74.2	66	62.1	1	4	248	0.00	29.864 
00:30	74.0	74.0	74.0	66	61.9	1	3	248	0.00	29.864 
00:35	73.9	73.9	73.9	66	61.8	0	2	248	0.00	29.864 
00:40	73.7	73.7	73.7	67	62.0	1	3	248	0.00	29.864 
00:45	73.7	73.7	73.7	67	62.0	1	2	248	0.00	29.865 
00:50	73.5	73.5	73.5	67	61.9	1	4	248	0.00	29.865 
00:55	73.5	73.5	73.5	67	61.9	1	4	248	0.00	29.865 
01:00	73.7	73.7	73.7	67	62.0	1	6	248	0.00	29.864 
01:05	73.7	73.7	73.7	67	62.0	1	4	248	0.00	29.864 
01:10	73.5	73.5	73.5	68	62.3	1	3	248	0.00	29.864 
01:15	73.5	73.5	73.5	68	62.3	1	3	248	0.00	29.860 
01:20	73.5	73.5	73.5	68	62.3	1	2	270	0.00	29.860 
01:25	73.5	73.5	73.5	68	62.3	1	4	248	0.00	29.860 
01:30	73.3	73.3	73.3	68	62.1	2	4	248	0.00	29.853 
01:35	73.3	73.3	73.3	69	62.5	1	4	248	0.00	29.853 
01:40	73.2	73.2	73.2	69	62.4	1	5	248	0.00	29.853 
01:45	73.2	73.2	73.2	69	62.4	1	4	270	0.00	29.859 
01:50	73.2	73.2	73.2	69	62.4	1	2	225	0.00	29.859 
01:55	73.0	73.0	73.0	69	62.2	1	3	248	0.00	29.859 
02:00	73.2	73.2	73.2	69	62.4	1	5	248	0.00	29.856 
02:05	73.2	73.2	73.2	69	62.4	1	5	270	0.00	29.856 
02:10	73.0	73.0	73.0	70	62.6	1	3	270	0.00	29.856 
02:15	73.0	73.0	73.0	70	62.6	1	3	270	0.00	29.841 
02:20	72.8	72.8	72.8	70	62.4	2	4	248	0.00	29.841 
02:25	72.7	72.7	72.7	71	62.7	1	5	248	0.00	29.841 
02:30	72.3	72.3	72.3	71	62.4	2	4	248	0.00	29.831 
02:35	72.1	72.1	72.1	71	62.2	1	4	248	0.00	29.831 
02:40	72.1	72.1	72.1	72	62.6	2	4	248	0.00	29.831 
02:45	72.0	72.0	72.0	72	62.5	1	4	270	0.00	29.838 
02:50	72.0	72.0	72.0	72	62.5	1	4	248	0.00	29.838 
02:55	72.0	72.0	72.0	72	62.5	1	5	248	0.00	29.838 
03:00	72.0	72.0	72.0	73	62.9	2	4	248	0.00	29.837 
03:05	72.0	72.0	72.0	73	62.9	2	5	248	0.00	29.837 
03:10	72.0	72.0	72.0	73	62.9	2	5	270	0.00	29.837 
03:15	72.0	72.0	72.0	73	62.9	2	5	270	0.00	29.839 
03:20	71.8	71.8	71.8	73	62.7	1	3	225	0.00	29.839 
03:25	71.8	71.8	71.8	73	62.7	1	5	248	0.00	29.839 
03:30	71.8	71.8	71.8	73	62.7	2	4	248	0.00	29.838 
03:35	71.8	71.8	71.8	73	62.7	2	4	248	0.00	29.838 
03:40	71.8	71.8	71.8	74	63.1	2	4	248	0.00	29.838 
03:45	71.6	71.6	71.6	74	62.9	2	4	248	0.00	29.836 
03:50	71.6	71.6	71.6	74	62.9	1	4	248	0.00	29.836 
03:55	71.6	71.6	71.6	74	62.9	1	3	248	0.00	29.836 
04:00	71.5	71.5	71.5	74	62.8	1	6	248	0.00	29.834 
04:05	71.5	71.5	71.5	75	63.1	1	3	248	0.00	29.834 
04:10	71.3	71.3	71.3	75	63.0	1	3	248	0.00	29.834 
04:15	71.3	71.3	71.3	75	63.0	1	3	248	0.00	29.831 
04:20	71.5	71.5	71.5	75	63.1	1	3	248	0.00	29.831 
04:25	71.3	71.3	71.3	75	63.0	1	2	248	0.00	29.831 
04:30	71.1	71.1	71.1	75	62.8	1	3	248	0.00	29.826 
04:35	71.1	71.1	71.1	75	62.8	1	3	248	0.00	29.826 
04:40	71.1	71.1	71.1	75	62.8	1	5	248	0.00	29.826 
04:45	71.3	71.3	71.3	75	63.0	1	4	248	0.00	29.826 
04:50	71.3	71.3	71.3	75	63.0	1	4	248	0.00	29.826 
04:55	71.3	71.3	71.3	75	63.0	1	3	248	0.00	29.826 
05:00	71.3	71.3	71.3	75	63.0	2	5	248	0.00	29.829 
05:05	71.5	71.5	71.5	75	63.1	2	6	248	0.00	29.829 
05:10	71.6	71.6	71.6	75	63.2	2	4	248	0.00	29.829 
05:15	71.6	71.6	71.6	75	63.2	1	5	248	0.00	29.829 
05:20	71.5	71.5	71.5	75	63.1	1	4	292	0.00	29.829 
05:25	71.6	71.6	71.6	75	63.2	2	5	248	0.00	29.829 
05:30	71.6	71.6	71.6	75	63.2	1	3	248	0.00	29.826 
05:35	71.5	71.5	71.5	75	63.1	1	3	225	0.00	29.826 
05:40	71.3	71.3	71.3	75	63.0	1	4	270	0.00	29.826 
05:45	71.3	71.3	71.3	75	63.0	1	3	248	0.00	29.833 
05:50	71.3	71.3	71.3	75	63.0	1	3	248	0.00	29.833 
05:55	71.3	71.3	71.3	75	63.0	1	3	270	0.00	29.833 
06:00	71.3	71.3	71.3	75	63.0	1	3	248	0.00	29.836 
06:05	71.3	71.3	71.3	75	63.0	1	4	248	0.00	29.836 
06:10	71.3	71.3	71.3	75	63.0	2	4	248	0.00	29.836 
06:15	71.1	71.1	71.1	76	63.1	1	4	248	0.00	29.835 
06:20	70.9	70.9	70.9	76	62.9	1	3	248	0.00	29.835 
06:25	70.9	70.9	70.9	76	62.9	1	3	248	0.00	29.835 
06:30	70.8	70.8	70.8	76	62.8	2	5	248	0.00	29.834 
06:35	70.8	70.8	70.8	76	62.8	1	2	248	0.00	29.834 
06:40	70.8	70.8	70.8	76	62.8	1	3	248	0.00	29.834 
06:45	70.8	70.8	70.8	76	62.8	2	4	248	0.00	29.840 
06:50	70.9	70.9	70.9	75	62.6	1	6	270	0.00	29.840 
06:55	71.1	71.1	71.1	75	62.8	1	4	270	0.00	29.840 
07:00	70.9	70.9	70.9	75	62.6	1	3	270	0.00	29.843 
07:05	70.9	70.9	70.9	75	62.6	1	4	270	0.00	29.843 
07:10	71.1	71.1	71.1	75	62.8	1	4	225	0.00	29.843 
07:15	71.1	71.1	71.1	75	62.8	1	3	315	0.00	29.844 
07:20	71.1	71.1	71.1	75	62.8	1	4	248	0.00	29.844 
07:25	71.1	71.1	71.1	75	62.8	1	4	248	0.00	29.844 
07:30	71.3	71.3	71.3	75	63.0	2	4	248	0.00	29.847 
07:35	71.6	71.6	71.6	75	63.2	2	4	248	0.00	29.847 
07:40	71.6	71.6	71.6	75	63.2	1	3	248	0.00	29.847 
07:45	71.8	71.8	71.8	74	63.1	2	5	248	0.00	29.856 
07:50	72.0	72.0	72.0	74	63.2	2	5	248	0.00	29.856 
07:55	72.3	72.3	72.3	73	63.1	3	5	248	0.00	29.856 
08:00	72.5	72.5	72.5	73	63.3	2	4	248	0.00	29.857 
08:05	72.8	72.8	72.8	72	63.2	2	6	248	0.00	29.857 
08:10	73.0	73.0	73.0	72	63.4	2	6	248	0.00	29.857 
08:15	73.2	73.2	73.2	72	63.6	2	4	248	0.00	29.863 
08:20	73.3	73.3	73.3	71	63.3	2	4	248	0.00	29.863 
08:25	73.7	73.7	73.7	70	63.3	3	7	248	0.00	29.863 
08:30	73.7	73.7	73.7	71	63.7	2	4	248	0.00	29.869 
08:35	74.0	74.0	74.0	70	63.6	2	4	270	0.00	29.869 
08:40	74.2	74.2	74.2	70	63.8	3	4	248	0.00	29.869 
08:45	74.4	74.4	74.4	69	63.5	2	4	248	0.00	29.871 
08:50	74.7	74.7	74.7	69	63.8	2	5	270	0.00	29.871 
08:55	74.7	74.7	74.7	69	63.8	2	5	270	0.00	29.871 
09:00	74.9	74.9	74.9	69	64.0	2	5	270	0.00	29.871 
09:05	75.3	75.3	77.1	68	64.0	2	7	270	0.00	29.871 
09:10	75.1	75.1	76.9	68	63.8	2	5	292	0.00	29.871 
09:15	75.1	75.1	76.9	69	64.2	2	4	270	0.00	29.881 
09:20	75.1	75.1	76.9	69	64.2	3	4	292	0.00	29.881 
09:25	75.4	75.4	77.1	69	64.5	2	3	270	0.00	29.881 
09:30	76.0	76.0	77.8	67	64.2	2	5	270	0.00	29.877 
09:35	76.5	76.5	78.3	68	65.1	2	4	248	0.00	29.877 
09:40	77.0	77.0	78.8	66	64.8	2	3	248	0.00	29.877 
09:45	77.2	77.2	79.0	65	64.5	3	5	270	0.00	29.876 
09:50	77.4	77.4	79.2	65	64.7	2	4	270	0.00	29.876 
09:55	77.4	77.4	79.2	65	64.7	3	5	248	0.00	29.876 
10:00	77.4	77.4	79.2	65	64.7	2	4	315	0.00	29.876 
10:05	77.7	77.7	79.5	65	65.0	2	5	248	0.00	29.876 
10:10	78.1	78.1	79.9	63	64.5	2	4	270	0.00	29.876 
10:15	78.5	78.5	80.4	64	65.3	1	3	270	0.00	29.880 
10:20	79.0	79.0	80.9	63	65.3	2	5	292	0.00	29.880 
10:25	79.2	79.2	81.1	62	65.0	2	5	270	0.00	29.880 
10:30	79.4	79.4	81.4	63	65.7	1	5	270	0.00	29.877 
10:35	79.8	79.8	81.7	61	65.1	3	6	270	0.00	29.877 
10:40	79.8	79.8	81.8	62	65.6	2	4	248	0.00	29.877 
10:45	80.1	80.1	82.2	62	65.9	2	3	292	0.00	29.874 
10:50	80.3	80.3	82.3	61	65.6	2	4	270	0.00	29.874 
10:55	80.7	80.7	82.8	61	66.0	2	4	270	0.00	29.874 
11:00	81.1	81.1	83.2	60	65.9	2	5	270	0.00	29.875 
11:05	81.2	81.2	83.3	60	66.0	2	4	248	0.00	29.875 
11:10	81.6	81.6	83.7	59	65.9	2	5	248	0.00	29.875 
11:15	82.0	82.0	84.2	59	66.2	2	3	270	0.00	29.872 
11:20	82.4	82.4	85.0	60	67.1	2	4	248	0.00	29.872 
11:25	82.4	82.4	84.6	58	66.1	3	4	248	0.00	29.872 
11:30	82.4	82.4	85.0	60	67.1	2	4	248	0.00	29.873 
11:35	82.6	82.6	85.1	59	66.8	2	5	248	0.00	29.873 
11:40	83.4	83.4	86.3	59	67.5	2	4	248	0.00	29.873 
11:45	83.4	83.4	86.3	59	67.5	2	5	270	0.00	29.881 
11:50	83.6	83.6	86.1	57	66.7	1	6	338	0.00	29.881 
11:55	83.6	83.6	86.6	59	67.7	2	4	248	0.00	29.881 
12:00	83.8	83.8	86.4	57	66.9	1	3	315	0.00	29.879 
12:05	84.0	84.0	87.0	58	67.6	2	4	292	0.00	29.879 
12:10	84.0	84.0	87.3	59	68.1	2	4	315	0.00	29.879 
12:15	84.3	84.3	87.2	57	67.4	3	6	270	0.00	29.874 
12:20	84.7	84.7	88.1	58	68.3	2	4	270	0.00	29.874 
12:25	84.7	84.7	88.1	58	68.3	2	5	270	0.00	29.874 
12:30	84.9	84.9	88.2	57	67.9	2	4	248	0.00	29.874 
12:35	85.1	85.1	88.2	56	67.6	2	4	315	0.00	29.874 
12:40	85.1	85.1	88.5	57	68.1	2	5	270	0.00	29.874 
12:45	85.5	85.5	88.6	55	67.5	3	6	248	0.00	29.872 
12:50	85.7	85.7	89.2	56	68.2	1	4	248	0.00	29.872 
12:55	85.3	85.3	88.2	55	67.3	3	5	292	0.00	29.872 
13:00	84.7	84.7	88.1	58	68.3	2	5	270	0.00	29.873 
13:05	84.3	84.3	87.5	58	67.9	2	4	270	0.00	29.873 
13:10	84.3	84.3	87.5	58	67.9	1	4	270	0.00	29.873 
13:15	84.3	84.3	87.5	58	67.9	2	4	248	0.00	29.875 
13:20	84.1	84.1	87.4	59	68.2	1	4	292	0.00	29.875 
13:25	84.0	84.0	87.3	59	68.1	2	3	270	0.00	29.875 
13:30	84.0	84.0	87.3	59	68.1	2	3	270	0.00	29.874 
13:35	84.0	84.0	87.5	60	68.6	1	3	270	0.00	29.874 
13:40	84.0	84.0	87.5	60	68.6	1	3	292	0.00	29.874 
13:45	84.0	84.0	87.5	60	68.6	1	3	292	0.00	29.871 
13:50	84.0	84.0	87.5	60	68.6	1	4	292	0.00	29.871 
13:55	84.0	84.0	87.5	60	68.6	1	3	315	0.00	29.871 
14:00	83.8	83.8	87.2	60	68.4	2	4	315	0.00	29.870 
14:05	84.0	84.0	87.5	60	68.6	1	3	338	0.00	29.870 
14:10	84.0	84.0	87.3	59	68.1	2	4	270	0.00	29.870 
14:15	83.8	83.8	86.9	59	67.9	2	4	248	0.00	29.870 
14:20	84.7	84.7	88.7	60	69.2	2	4	248	0.00	29.870 
14:25	85.5	85.5	88.9	56	68.0	2	7	292	0.00	29.870 
14:30	84.7	84.7	87.9	57	67.7	2	5	315	0.00	29.871 
14:35	84.5	84.5	88.4	60	69.1	2	4	292	0.00	29.871 
14:40	84.1	84.1	88.0	61	69.2	1	2	0	0.00	29.871 
14:45	84.0	84.0	87.8	61	69.1	2	6	292	0.00	29.870 
14:50	84.3	84.3	88.0	60	68.9	1	4	270	0.00	29.870 
14:55	85.3	85.3	89.5	59	69.3	2	4	270	0.00	29.870 
15:00	85.7	85.7	89.5	57	68.7	2	3	292	0.00	29.868 
15:05	85.9	85.9	89.9	57	68.9	1	3	270	0.00	29.868 
15:10	86.3	86.3	90.6	57	69.2	2	4	315	0.00	29.868 
15:15	86.3	86.3	90.6	57	69.2	2	3	315	0.00	29.867 
15:20	87.0	87.0	91.9	57	69.9	2	5	248	0.00	29.867 
15:25	87.0	87.0	91.1	55	68.8	2	4	292	0.00	29.867 
15:30	86.5	86.5	90.6	56	68.9	2	6	315	0.00	29.866 
15:35	86.7	86.7	91.7	58	70.1	1	4	270	0.00	29.866 
15:40	87.2	87.2	91.9	56	69.6	1	4	315	0.00	29.866 
15:45	86.7	86.7	90.6	55	68.6	2	4	270	0.00	29.864 
15:50	85.5	85.5	89.2	57	68.5	2	4	248	0.00	29.864 
15:55	85.7	85.7	89.9	58	69.2	2	4	292	0.00	29.864 
16:00	86.5	86.5	91.0	57	69.4	1	4	338	0.00	29.862 
16:05	85.7	85.7	89.9	58	69.2	1	3	315	0.00	29.862 
16:10	86.1	86.1	90.6	58	69.6	1	4	292	0.00	29.862 
16:15	86.7	86.7	91.0	56	69.1	2	4	248	0.00	29.864 
16:20	86.7	86.7	91.3	57	69.6	1	4	315	0.00	29.864 
16:25	86.7	86.7	91.0	56	69.1	2	4	292	0.00	29.864 
16:30	87.0	87.0	91.5	56	69.4	2	5	248	0.00	29.866 
16:35	87.0	87.0	91.5	56	69.4	2	5	270	0.00	29.866 
16:40	86.5	86.5	90.6	56	68.9	1	4	315	0.00	29.866 
16:45	86.5	86.5	90.6	56	68.9	1	4	315	0.00	29.867 
16:50	86.3	86.3	90.6	57	69.2	2	5	315	0.00	29.867 
16:55	85.5	85.5	89.5	58	69.0	2	5	292	0.00	29.867 
17:00	85.7	85.7	89.9	58	69.2	1	3	315	0.00	29.867 
17:05	85.9	85.9	89.9	57	68.9	2	4	270	0.00	29.867 
17:10	85.9	85.9	90.2	58	69.4	1	5	270	0.00	29.867 
17:15	85.5	85.5	89.5	58	69.0	2	4	292	0.00	29.867 
17:20	84.9	84.9	88.8	59	68.9	2	6	270	0.00	29.867 
17:25	84.9	84.9	89.1	60	69.4	1	3	338	0.00	29.867 
17:30	84.9	84.9	88.8	59	68.9	1	3	270	0.00	29.867 
17:35	84.9	84.9	88.8	59	68.9	1	2	292	0.00	29.867 
17:40	84.7	84.7	88.4	59	68.8	1	3	315	0.00	29.867 
17:45	84.7	84.7	88.4	59	68.8	2	4	292	0.00	29.867 
17:50	84.5	84.5	88.4	60	69.1	1	4	292	0.00	29.867 
17:55	84.9	84.9	88.8	59	68.9	2	4	270	0.00	29.867 
18:00	85.1	85.1	89.1	59	69.1	1	5	315	0.00	29.867 
18:05	84.9	84.9	89.4	61	69.9	2	4	270	0.00	29.867 
18:10	84.9	84.9	89.1	60	69.4	1	3	270	0.00	29.867 
18:15	84.7	84.7	88.4	59	68.8	1	3	315	0.00	29.867 
18:20	84.3	84.3	88.0	60	68.9	2	5	248	0.00	29.867 
18:25	83.6	83.6	87.1	61	68.7	2	4	315	0.00	29.867 
18:30	83.2	83.2	86.7	62	68.8	1	3	292	0.00	29.873 
18:35	83.0	83.0	86.4	62	68.6	0	2	338	0.00	29.873 
18:40	82.8	82.8	86.1	62	68.4	1	3	315	0.00	29.873 
18:45	82.6	82.6	85.9	63	68.7	1	4	315	0.00	29.879 
18:50	82.4	82.4	85.8	64	69.0	0	1	315	0.00	29.879 
18:55	82.2	82.2	85.5	64	68.8	1	4	315	0.00	29.879 
19:00	82.2	82.2	85.1	62	67.9	1	4	292	0.00	29.879 
19:05	81.8	81.8	84.5	62	67.5	2	4	270	0.00	29.879 
19:10	81.6	81.6	84.4	63	67.8	1	3	292	0.00	29.879 
19:15	81.6	81.6	84.4	63	67.8	1	2	292	0.00	29.883 
19:20	81.8	81.8	85.1	65	68.9	0	2	270	0.00	29.883 
19:25	82.0	82.0	85.4	65	69.0	0	2	270	0.00	29.883 
19:30	82.4	82.4	85.8	64	69.0	0	2	270	0.00	29.884 
19:35	82.6	82.6	86.2	64	69.2	0	2	270	0.00	29.884 
19:40	82.6	82.6	86.4	65	69.6	0	1	270	0.00	29.884 
19:45	82.6	82.6	86.6	66	70.1	0	1	270	0.00	29.887 
19:50	82.6	82.6	86.2	64	69.2	0	1	270	0.00	29.887 
19:55	82.4	82.4	86.1	65	69.4	0	0	---	0.00	29.887 
20:00	82.0	82.0	85.4	65	69.0	0	1	270	0.00	29.894 
20:05	81.8	81.8	85.3	66	69.3	0	1	270	0.00	29.894 
20:10	81.4	81.4	84.6	66	68.9	0	1	270	0.00	29.894 
20:15	81.2	81.2	84.5	67	69.2	0	0	---	0.00	29.897 
20:20	81.2	81.2	84.5	67	69.2	0	0	---	0.00	29.897 
20:25	81.1	81.1	84.3	67	69.1	0	0	---	0.00	29.897 
20:30	81.1	81.1	84.3	67	69.1	0	0	---	0.00	29.895 
20:35	80.9	80.9	84.1	68	69.3	0	0	---	0.00	29.895 
20:40	80.7	80.7	83.8	68	69.1	0	0	---	0.00	29.895 
20:45	80.5	80.5	83.5	68	68.9	0	0	---	0.00	29.894 
20:50	80.3	80.3	83.3	69	69.2	0	0	---	0.00	29.894 
20:55	80.1	80.1	83.0	69	69.0	0	0	---	0.00	29.894 
21:00	79.9	79.9	82.7	69	68.8	0	0	---	0.00	29.887 
21:05	79.6	79.6	82.2	69	68.5	0	0	---	0.00	29.887 
21:10	79.2	79.2	81.6	69	68.1	0	0	---	0.00	29.887 
21:15	79.0	79.0	81.3	69	67.9	0	0	---	0.00	29.892 
21:20	78.6	78.6	80.8	69	67.6	0	0	---	0.00	29.892 
21:25	78.3	78.3	80.4	70	67.7	0	0	---	0.00	29.892 
21:30	78.1	78.1	80.2	70	67.5	0	0	---	0.00	29.898 
21:35	77.7	77.7	79.7	71	67.5	0	0	---	0.00	29.898 
21:40	77.4	77.4	79.3	71	67.2	0	0	---	0.00	29.898 
21:45	77.0	77.0	78.7	72	67.3	0	0	---	0.00	29.902 
21:50	76.8	76.8	78.5	72	67.1	0	0	---	0.00	29.902 
21:55	76.5	76.5	78.1	73	67.2	0	0	---	0.00	29.902 
22:00	76.3	76.3	77.8	74	67.4	0	0	---	0.00	29.914 
22:05	76.1	76.1	77.5	75	67.6	0	0	---	0.00	29.914 
22:10	76.0	76.0	77.4	75	67.5	0	0	---	0.00	29.914 
22:15	75.8	75.8	77.0	77	68.1	0	0	---	0.00	29.917 
22:20	75.8	75.8	77.0	77	68.1	0	2	270	0.00	29.917 
22:25	75.8	75.8	77.0	77	68.1	0	0	---	0.00	29.917 
22:30	75.8	75.8	77.0	77	68.1	0	0	---	0.00	29.924 
22:35	75.8	75.8	77.0	77	68.1	0	1	270	0.00	29.924 
22:40	76.0	76.0	77.3	76	67.9	0	1	270	0.00	29.924 
22:45	76.1	76.1	77.5	75	67.6	0	2	270	0.00	29.930 
22:50	76.3	76.3	77.7	75	67.8	0	1	270	0.00	29.930 
22:55	76.3	76.3	77.7	75	67.8	0	0	---	0.00	29.930 
23:00	76.1	76.1	77.5	75	67.6	0	0	---	0.00	29.930 
23:05	76.0	76.0	77.4	75	67.5	0	0	---	0.00	29.930 
23:10	75.8	75.8	77.0	76	67.7	0	0	---	0.00	29.930 
23:15	75.4	75.4	76.4	77	67.7	0	0	---	0.00	29.930 
23:20	75.3	75.3	76.3	77	67.6	0	1	270	0.00	29.930 
23:25	74.9	74.9	74.9	78	67.6	0	0	---	0.00	29.930 
23:30	74.6	74.6	74.6	78	67.3	0	0	---	0.00	29.931 
23:35	74.2	74.2	74.2	79	67.3	0	0	---	0.00	29.931 
23:40	73.9	73.9	73.9	80	67.3	0	0	---	0.00	29.931 
23:45	73.5	73.5	73.5	81	67.3	0	0	---	0.00	29.930 
23:50	73.2	73.2	73.2	82	67.4	0	0	---	0.00	29.930 
23:55	73.0	73.0	73.0	83	67.5	0	0	---	0.00	29.930 

CoCoRaHS
IN-AL-39
A2 Web Hosting
Creative Commons License
GoDaddy
Look for:

loaded 2017-12-10 21:43:01 • last modified 2010-11-18 10:43:29
Privacy PolicyDisclaimer
• wx.awcolley.com is powered by PmWiki v.2002016 •
• all content (unless otherwise noted) © 2017 A W Colley